sensor_id;sensor_type;location;lat;lon;timestamp;pressure;altitude;pressure_sealevel;temperature;humidity
74529;BME280;63009;52.584;5.932;2022-09-29T00:01:22;100123.69;;;6.85;92.30
74529;BME280;63009;52.584;5.932;2022-09-29T00:03:47;100137.34;;;6.92;92.93
74529;BME280;63009;52.584;5.932;2022-09-29T00:06:14;100143.59;;;6.89;92.67
74529;BME280;63009;52.584;5.932;2022-09-29T00:08:41;100116.56;;;6.71;92.63
74529;BME280;63009;52.584;5.932;2022-09-29T00:11:08;100137.00;;;6.82;92.33
74529;BME280;63009;52.584;5.932;2022-09-29T00:13:34;100142.31;;;6.80;91.71
74529;BME280;63009;52.584;5.932;2022-09-29T00:16:00;100146.28;;;6.72;92.00
74529;BME280;63009;52.584;5.932;2022-09-29T00:18:27;100140.44;;;6.67;92.17
74529;BME280;63009;52.584;5.932;2022-09-29T00:23:26;100142.97;;;6.68;92.74
74529;BME280;63009;52.584;5.932;2022-09-29T00:26:04;100143.91;;;6.67;92.31
74529;BME280;63009;52.584;5.932;2022-09-29T00:28:30;100128.97;;;6.52;92.80
74529;BME280;63009;52.584;5.932;2022-09-29T00:31:00;100135.00;;;6.54;93.01
74529;BME280;63009;52.584;5.932;2022-09-29T00:33:30;100140.06;;;6.57;93.31
74529;BME280;63009;52.584;5.932;2022-09-29T00:36:30;100092.44;;;6.32;94.09
74529;BME280;63009;52.584;5.932;2022-09-29T00:38:50;100148.56;;;6.62;94.91
74529;BME280;63009;52.584;5.932;2022-09-29T00:41:31;100134.66;;;6.60;95.09
74529;BME280;63009;52.584;5.932;2022-09-29T00:44:01;100140.53;;;6.65;95.32
74529;BME280;63009;52.584;5.932;2022-09-29T00:46:48;100139.59;;;6.66;95.15
74529;BME280;63009;52.584;5.932;2022-09-29T00:49:20;100133.50;;;6.66;95.05
74529;BME280;63009;52.584;5.932;2022-09-29T00:54:19;100140.00;;;6.59;94.73
74529;BME280;63009;52.584;5.932;2022-09-29T00:56:45;100140.06;;;6.57;94.02
74529;BME280;63009;52.584;5.932;2022-09-29T00:59:16;100140.31;;;6.52;93.39
74529;BME280;63009;52.584;5.932;2022-09-29T01:01:43;100137.03;;;6.49;92.78
74529;BME280;63009;52.584;5.932;2022-09-29T01:04:13;100133.09;;;6.40;91.58
74529;BME280;63009;52.584;5.932;2022-09-29T01:06:43;100143.69;;;6.39;91.07
74529;BME280;63009;52.584;5.932;2022-09-29T01:09:14;100136.72;;;6.38;91.04
74529;BME280;63009;52.584;5.932;2022-09-29T01:11:40;100145.69;;;6.34;91.15
74529;BME280;63009;52.584;5.932;2022-09-29T01:14:07;100135.34;;;6.31;92.05
74529;BME280;63009;52.584;5.932;2022-09-29T01:16:35;100142.38;;;6.30;93.36
74529;BME280;63009;52.584;5.932;2022-09-29T01:19:05;100141.59;;;6.28;93.42
74529;BME280;63009;52.584;5.932;2022-09-29T01:21:37;100134.75;;;6.25;93.27
74529;BME280;63009;52.584;5.932;2022-09-29T01:26:53;100139.78;;;6.13;92.15
74529;BME280;63009;52.584;5.932;2022-09-29T01:29:33;100149.19;;;6.17;92.12
74529;BME280;63009;52.584;5.932;2022-09-29T01:32:18;100140.09;;;6.07;91.83
74529;BME280;63009;52.584;5.932;2022-09-29T01:37:51;100130.75;;;6.01;92.70
74529;BME280;63009;52.584;5.932;2022-09-29T01:40:34;100138.44;;;6.04;91.85
74529;BME280;63009;52.584;5.932;2022-09-29T01:43:07;100157.66;;;6.05;92.25
74529;BME280;63009;52.584;5.932;2022-09-29T01:45:43;100149.97;;;6.02;92.48
74529;BME280;63009;52.584;5.932;2022-09-29T01:48:17;100156.13;;;6.01;92.88
74529;BME280;63009;52.584;5.932;2022-09-29T01:50:46;100156.47;;;5.94;92.39
74529;BME280;63009;52.584;5.932;2022-09-29T01:53:19;100146.16;;;5.90;91.80
74529;BME280;63009;52.584;5.932;2022-09-29T01:55:50;100157.72;;;5.86;90.61
74529;BME280;63009;52.584;5.932;2022-09-29T01:58:33;100142.50;;;5.75;90.19
74529;BME280;63009;52.584;5.932;2022-09-29T02:01:04;100141.13;;;5.68;92.27
74529;BME280;63009;52.584;5.932;2022-09-29T02:03:36;100136.81;;;5.67;93.34
74529;BME280;63009;52.584;5.932;2022-09-29T02:06:13;100149.75;;;5.70;93.27
74529;BME280;63009;52.584;5.932;2022-09-29T02:08:45;100149.16;;;5.65;93.43
74529;BME280;63009;52.584;5.932;2022-09-29T02:11:13;100144.03;;;5.62;93.09
74529;BME280;63009;52.584;5.932;2022-09-29T02:16:12;100151.13;;;5.60;93.73
74529;BME280;63009;52.584;5.932;2022-09-29T02:18:53;100142.41;;;5.59;95.08
74529;BME280;63009;52.584;5.932;2022-09-29T02:21:20;100138.09;;;5.58;95.42
74529;BME280;63009;52.584;5.932;2022-09-29T02:23:46;100146.53;;;5.65;95.82
74529;BME280;63009;52.584;5.932;2022-09-29T02:26:13;100150.94;;;5.64;95.68
74529;BME280;63009;52.584;5.932;2022-09-29T02:28:39;100158.63;;;5.68;95.79
74529;BME280;63009;52.584;5.932;2022-09-29T02:31:05;100154.00;;;5.73;95.66
74529;BME280;63009;52.584;5.932;2022-09-29T02:33:31;100157.41;;;5.75;95.79
74529;BME280;63009;52.584;5.932;2022-09-29T02:38:52;100154.84;;;5.73;96.07
74529;BME280;63009;52.584;5.932;2022-09-29T02:41:49;100155.78;;;5.72;95.66
74529;BME280;63009;52.584;5.932;2022-09-29T02:44:39;100154.78;;;5.75;95.39
74529;BME280;63009;52.584;5.932;2022-09-29T02:47:34;100151.19;;;5.77;95.42
74529;BME280;63009;52.584;5.932;2022-09-29T02:55:58;100153.94;;;5.74;93.85
74529;BME280;63009;52.584;5.932;2022-09-29T02:58:43;100149.22;;;5.63;93.78
74529;BME280;63009;52.584;5.932;2022-09-29T03:01:11;100159.56;;;5.66;93.16
74529;BME280;63009;52.584;5.932;2022-09-29T03:03:38;100155.38;;;5.62;93.07
74529;BME280;63009;52.584;5.932;2022-09-29T03:06:03;100161.63;;;5.60;93.68
74529;BME280;63009;52.584;5.932;2022-09-29T03:08:29;100165.16;;;5.59;94.27
74529;BME280;63009;52.584;5.932;2022-09-29T03:10:54;100158.47;;;5.53;93.97
74529;BME280;63009;52.584;5.932;2022-09-29T03:13:19;100158.53;;;5.52;93.77
74529;BME280;63009;52.584;5.932;2022-09-29T03:15:45;100130.59;;;5.33;93.94
74529;BME280;63009;52.584;5.932;2022-09-29T03:18:10;100162.09;;;5.51;94.39
74529;BME280;63009;52.584;5.932;2022-09-29T03:20:35;100165.63;;;5.50;94.67
74529;BME280;63009;52.584;5.932;2022-09-29T03:23:01;100159.66;;;5.46;94.85
74529;BME280;63009;52.584;5.932;2022-09-29T03:25:26;100152.19;;;5.39;94.41
74529;BME280;63009;52.584;5.932;2022-09-29T03:27:52;100166.69;;;5.46;94.15
74529;BME280;63009;52.584;5.932;2022-09-29T03:30:17;100160.66;;;5.44;94.42
74529;BME280;63009;52.584;5.932;2022-09-29T03:32:43;100156.34;;;5.43;94.37
74529;BME280;63009;52.584;5.932;2022-09-29T03:35:09;100143.91;;;5.29;94.21
74529;BME280;63009;52.584;5.932;2022-09-29T03:37:34;100150.63;;;5.34;94.31
74529;BME280;63009;52.584;5.932;2022-09-29T03:40:00;100168.09;;;5.34;94.83
74529;BME280;63009;52.584;5.932;2022-09-29T03:42:25;100167.34;;;5.32;94.52
74529;BME280;63009;52.584;5.932;2022-09-29T03:44:52;100150.06;;;5.28;94.50
74529;BME280;63009;52.584;5.932;2022-09-29T03:47:17;100164.72;;;5.32;94.85
74529;BME280;63009;52.584;5.932;2022-09-29T03:49:42;100161.31;;;5.30;94.62
74529;BME280;63009;52.584;5.932;2022-09-29T03:52:08;100163.94;;;5.30;95.13
74529;BME280;63009;52.584;5.932;2022-09-29T03:54:33;100160.41;;;5.31;95.23
74529;BME280;63009;52.584;5.932;2022-09-29T03:56:58;100155.47;;;5.25;95.28
74529;BME280;63009;52.584;5.932;2022-09-29T03:59:23;100159.00;;;5.24;95.10
74529;BME280;63009;52.584;5.932;2022-09-29T04:01:49;100150.50;;;5.19;95.22
74529;BME280;63009;52.584;5.932;2022-09-29T04:04:14;100178.19;;;5.24;94.58
74529;BME280;63009;52.584;5.932;2022-09-29T04:06:39;100176.50;;;5.23;93.92
74529;BME280;63009;52.584;5.932;2022-09-29T04:09:04;100172.38;;;5.18;93.54
74529;BME280;63009;52.584;5.932;2022-09-29T04:11:30;100175.16;;;5.15;93.58
74529;BME280;63009;52.584;5.932;2022-09-29T04:13:55;100176.06;;;5.14;93.80
74529;BME280;63009;52.584;5.932;2022-09-29T04:16:20;100186.69;;;5.11;93.67
74529;BME280;63009;52.584;5.932;2022-09-29T04:18:45;100173.94;;;5.03;93.94
74529;BME280;63009;52.584;5.932;2022-09-29T04:21:11;100183.41;;;5.05;93.96
74529;BME280;63009;52.584;5.932;2022-09-29T04:23:36;100188.53;;;5.09;94.06
74529;BME280;63009;52.584;5.932;2022-09-29T04:26:03;100204.38;;;5.05;94.06
74529;BME280;63009;52.584;5.932;2022-09-29T04:28:32;100193.84;;;5.07;94.20
74529;BME280;63009;52.584;5.932;2022-09-29T04:30:58;100189.59;;;5.04;94.17
74529;BME280;63009;52.584;5.932;2022-09-29T04:33:23;100200.06;;;5.04;93.62
74529;BME280;63009;52.584;5.932;2022-09-29T04:35:49;100200.28;;;5.00;93.37
74529;BME280;63009;52.584;5.932;2022-09-29T04:38:15;100199.28;;;5.02;94.31
74529;BME280;63009;52.584;5.932;2022-09-29T04:40:40;100200.28;;;5.00;94.19
74529;BME280;63009;52.584;5.932;2022-09-29T04:43:06;100201.97;;;5.01;94.23
74529;BME280;63009;52.584;5.932;2022-09-29T04:45:31;100211.69;;;4.99;94.16
74529;BME280;63009;52.584;5.932;2022-09-29T04:47:57;100207.38;;;4.98;94.03
74529;BME280;63009;52.584;5.932;2022-09-29T04:50:22;100216.06;;;4.98;94.30
74529;BME280;63009;52.584;5.932;2022-09-29T04:52:48;100210.81;;;4.98;94.24
74529;BME280;63009;52.584;5.932;2022-09-29T04:55:13;100217.84;;;4.98;94.63
74529;BME280;63009;52.584;5.932;2022-09-29T04:57:41;100206.72;;;4.93;94.55
74529;BME280;63009;52.584;5.932;2022-09-29T05:00:08;100195.03;;;4.81;94.86
74529;BME280;63009;52.584;5.932;2022-09-29T05:02:34;100218.75;;;4.97;94.74
74529;BME280;63009;52.584;5.932;2022-09-29T05:05:00;100210.66;;;4.83;94.22
74529;BME280;63009;52.584;5.932;2022-09-29T05:07:25;100211.66;;;4.80;92.18
74529;BME280;63009;52.584;5.932;2022-09-29T05:09:51;100207.59;;;4.73;91.69
74529;BME280;63009;52.584;5.932;2022-09-29T05:12:16;100207.88;;;4.67;91.98
74529;BME280;63009;52.584;5.932;2022-09-29T05:14:41;100208.59;;;4.70;92.58
74529;BME280;63009;52.584;5.932;2022-09-29T05:17:07;100223.31;;;4.73;93.61
74529;BME280;63009;52.584;5.932;2022-09-29T05:19:32;100225.00;;;4.74;94.01
74529;BME280;63009;52.584;5.932;2022-09-29T05:21:58;100216.44;;;4.70;94.99
74529;BME280;63009;52.584;5.932;2022-09-29T05:24:24;100213.97;;;4.67;94.39
74529;BME280;63009;52.584;5.932;2022-09-29T05:26:49;100232.78;;;4.75;94.70
74529;BME280;63009;52.584;5.932;2022-09-29T05:29:14;100234.50;;;4.76;94.84
74529;BME280;63009;52.584;5.932;2022-09-29T05:31:40;100229.31;;;4.75;95.02
74529;BME280;63009;52.584;5.932;2022-09-29T05:34:05;100208.75;;;4.67;94.81
74529;BME280;63009;52.584;5.932;2022-09-29T05:36:30;100217.38;;;4.69;95.16
74529;BME280;63009;52.584;5.932;2022-09-29T05:38:56;100230.38;;;4.71;94.63
74529;BME280;63009;52.584;5.932;2022-09-29T05:41:21;100236.47;;;4.71;94.94
74529;BME280;63009;52.584;5.932;2022-09-29T05:43:51;100240.78;;;4.72;95.15
74529;BME280;63009;52.584;5.932;2022-09-29T05:46:18;100243.53;;;4.69;94.59
74529;BME280;63009;52.584;5.932;2022-09-29T05:48:45;100241.00;;;4.68;94.58
74529;BME280;63009;52.584;5.932;2022-09-29T05:51:12;100235.75;;;4.68;95.05
74529;BME280;63009;52.584;5.932;2022-09-29T05:53:39;100245.94;;;4.74;95.15
74529;BME280;63009;52.584;5.932;2022-09-29T05:56:09;100240.84;;;4.71;95.23
74529;BME280;63009;52.584;5.932;2022-09-29T05:58:35;100247.72;;;4.73;94.78
74529;BME280;63009;52.584;5.932;2022-09-29T06:01:12;100246.03;;;4.72;95.07
74529;BME280;63009;52.584;5.932;2022-09-29T06:03:37;100254.72;;;4.73;95.50
74529;BME280;63009;52.584;5.932;2022-09-29T06:06:05;100250.41;;;4.72;95.62
74529;BME280;63009;52.584;5.932;2022-09-29T06:08:30;100260.09;;;4.70;95.36
74529;BME280;63009;52.584;5.932;2022-09-29T06:11:02;100265.19;;;4.73;95.52
74529;BME280;63009;52.584;5.932;2022-09-29T06:13:27;100241.13;;;4.65;95.42
74529;BME280;63009;52.584;5.932;2022-09-29T06:15:52;100256.56;;;4.71;96.13
74529;BME280;63009;52.584;5.932;2022-09-29T06:18:17;100252.03;;;4.74;96.09
74529;BME280;63009;52.584;5.932;2022-09-29T06:20:42;100260.41;;;4.83;95.96
74529;BME280;63009;52.584;5.932;2022-09-29T06:23:10;100261.91;;;4.88;96.30
74529;BME280;63009;52.584;5.932;2022-09-29T06:25:35;100266.06;;;4.92;95.86
74529;BME280;63009;52.584;5.932;2022-09-29T06:28:01;100251.50;;;4.87;95.82
74529;BME280;63009;52.584;5.932;2022-09-29T06:30:26;100272.69;;;5.01;96.03
74529;BME280;63009;52.584;5.932;2022-09-29T06:32:54;100267.38;;;5.02;96.20
74529;BME280;63009;52.584;5.932;2022-09-29T06:35:19;100280.28;;;5.07;96.23
74529;BME280;63009;52.584;5.932;2022-09-29T06:38:03;100261.22;;;5.03;95.81
74529;BME280;63009;52.584;5.932;2022-09-29T06:40:28;100291.84;;;5.22;96.06
74529;BME280;63009;52.584;5.932;2022-09-29T06:42:53;100280.16;;;5.29;96.25
74529;BME280;63009;52.584;5.932;2022-09-29T06:45:19;100289.47;;;5.34;96.51
74529;BME280;63009;52.584;5.932;2022-09-29T06:47:44;100289.00;;;5.45;96.27
74529;BME280;63009;52.584;5.932;2022-09-29T06:50:09;100293.53;;;5.60;96.15
74529;BME280;63009;52.584;5.932;2022-09-29T06:52:34;100299.97;;;5.91;95.85
74529;BME280;63009;52.584;5.932;2022-09-29T06:55:00;100292.44;;;6.02;95.52
74529;BME280;63009;52.584;5.932;2022-09-29T06:57:25;100288.78;;;6.23;95.06
74529;BME280;63009;52.584;5.932;2022-09-29T06:59:51;100305.03;;;6.49;94.96
74529;BME280;63009;52.584;5.932;2022-09-29T07:02:16;100280.63;;;6.64;94.36
74529;BME280;63009;52.584;5.932;2022-09-29T07:04:42;100295.72;;;6.94;93.14
74529;BME280;63009;52.584;5.932;2022-09-29T07:07:07;100307.59;;;7.18;93.02
74529;BME280;63009;52.584;5.932;2022-09-29T07:09:33;100312.03;;;7.49;92.54
74529;BME280;63009;52.584;5.932;2022-09-29T07:11:58;100314.94;;;7.76;91.25
74529;BME280;63009;52.584;5.932;2022-09-29T07:14:23;100312.56;;;8.03;89.95
74529;BME280;63009;52.584;5.932;2022-09-29T07:16:50;100297.84;;;8.30;89.05
74529;BME280;63009;52.584;5.932;2022-09-29T07:19:16;100308.69;;;8.70;87.79
74529;BME280;63009;52.584;5.932;2022-09-29T07:21:42;100323.81;;;9.11;86.49
74529;BME280;63009;52.584;5.932;2022-09-29T07:24:08;100316.19;;;9.35;85.11
74529;BME280;63009;52.584;5.932;2022-09-29T07:26:33;100323.59;;;9.71;84.15
74529;BME280;63009;52.584;5.932;2022-09-29T07:28:58;100324.00;;;10.06;82.97
74529;BME280;63009;52.584;5.932;2022-09-29T07:31:24;100304.91;;;10.29;82.32
74529;BME280;63009;52.584;5.932;2022-09-29T07:33:49;100328.47;;;10.72;80.90
74529;BME280;63009;52.584;5.932;2022-09-29T07:36:17;100328.41;;;10.99;79.71
74529;BME280;63009;52.584;5.932;2022-09-29T07:38:50;100328.38;;;11.24;78.00
74529;BME280;63009;52.584;5.932;2022-09-29T07:41:17;100338.34;;;11.46;77.57
74529;BME280;63009;52.584;5.932;2022-09-29T07:43:42;100317.88;;;11.61;77.18
74529;BME280;63009;52.584;5.932;2022-09-29T07:46:08;100333.72;;;11.99;77.19
74529;BME280;63009;52.584;5.932;2022-09-29T07:48:34;100332.53;;;12.27;75.60
74529;BME280;63009;52.584;5.932;2022-09-29T07:51:15;100325.50;;;12.39;73.47
74529;BME280;63009;52.584;5.932;2022-09-29T07:53:40;100322.19;;;12.59;74.05
74529;BME280;63009;52.584;5.932;2022-09-29T07:56:08;100332.69;;;12.96;74.52
74529;BME280;63009;52.584;5.932;2022-09-29T07:58:35;100336.63;;;13.25;74.19
74529;BME280;63009;52.584;5.932;2022-09-29T08:01:01;100345.31;;;13.61;72.70
74529;BME280;63009;52.584;5.932;2022-09-29T08:03:29;100339.88;;;13.85;72.12
74529;BME280;63009;52.584;5.932;2022-09-29T08:05:55;100338.97;;;14.07;70.53
74529;BME280;63009;52.584;5.932;2022-09-29T08:08:22;100334.97;;;14.23;70.73
74529;BME280;63009;52.584;5.932;2022-09-29T08:10:47;100342.41;;;14.52;69.63
74529;BME280;63009;52.584;5.932;2022-09-29T08:13:12;100357.53;;;14.72;67.84
74529;BME280;63009;52.584;5.932;2022-09-29T08:15:37;100353.72;;;14.86;66.36
74529;BME280;63009;52.584;5.932;2022-09-29T08:18:03;100343.81;;;14.77;65.10
74529;BME280;63009;52.584;5.932;2022-09-29T08:20:28;100354.16;;;14.91;65.96
74529;BME280;63009;52.584;5.932;2022-09-29T08:22:53;100359.38;;;15.13;68.05
74529;BME280;63009;52.584;5.932;2022-09-29T08:25:21;100363.56;;;15.37;68.00
74529;BME280;63009;52.584;5.932;2022-09-29T08:27:47;100361.84;;;15.57;67.80
74529;BME280;63009;52.584;5.932;2022-09-29T08:30:12;100373.34;;;15.78;65.23
74529;BME280;63009;52.584;5.932;2022-09-29T08:32:37;100367.63;;;15.92;64.88
74529;BME280;63009;52.584;5.932;2022-09-29T08:35:03;100377.94;;;16.07;63.22
74529;BME280;63009;52.584;5.932;2022-09-29T08:37:29;100376.97;;;16.27;63.74
74529;BME280;63009;52.584;5.932;2022-09-29T08:39:55;100373.22;;;16.39;62.41
74529;BME280;63009;52.584;5.932;2022-09-29T08:42:33;100375.16;;;16.47;63.33
74529;BME280;63009;52.584;5.932;2022-09-29T08:45:04;100378.72;;;16.67;61.30
74529;BME280;63009;52.584;5.932;2022-09-29T08:47:38;100378.59;;;16.97;62.44
74529;BME280;63009;52.584;5.932;2022-09-29T08:50:13;100375.47;;;17.11;61.07
74529;BME280;63009;52.584;5.932;2022-09-29T08:52:42;100383.22;;;16.85;57.74
74529;BME280;63009;52.584;5.932;2022-09-29T08:57:44;100389.22;;;16.58;59.01
74529;BME280;63009;52.584;5.932;2022-09-29T09:00:12;100383.81;;;16.79;59.50
74529;BME280;63009;52.584;5.932;2022-09-29T09:02:57;100393.47;;;17.00;62.43
74529;BME280;63009;52.584;5.932;2022-09-29T09:05:46;100380.97;;;17.00;58.66
74529;BME280;63009;52.584;5.932;2022-09-29T09:11:02;100386.00;;;17.23;59.25
74529;BME280;63009;52.584;5.932;2022-09-29T09:16:28;100401.84;;;17.43;58.39
74529;BME280;63009;52.584;5.932;2022-09-29T09:21:56;100410.53;;;17.55;58.08
74529;BME280;63009;52.584;5.932;2022-09-29T09:24:37;100412.06;;;17.77;60.18
74529;BME280;63009;52.584;5.932;2022-09-29T09:27:09;100403.19;;;17.67;56.09
74529;BME280;63009;52.584;5.932;2022-09-29T09:29:41;100409.09;;;17.80;58.32
74529;BME280;63009;52.584;5.932;2022-09-29T09:32:28;100412.34;;;18.01;57.41
74529;BME280;63009;52.584;5.932;2022-09-29T09:35:05;100409.09;;;18.35;57.26
74529;BME280;63009;52.584;5.932;2022-09-29T09:37:38;100403.22;;;18.31;54.21
74529;BME280;63009;52.584;5.932;2022-09-29T09:40:14;100410.38;;;18.58;54.78
74529;BME280;63009;52.584;5.932;2022-09-29T09:42:43;100401.03;;;18.62;55.06
74529;BME280;63009;52.584;5.932;2022-09-29T09:45:24;100404.13;;;18.67;52.95
74529;BME280;63009;52.584;5.932;2022-09-29T09:47:58;100397.53;;;18.80;56.11
74529;BME280;63009;52.584;5.932;2022-09-29T09:50:26;100396.38;;;19.00;55.41
74529;BME280;63009;52.584;5.932;2022-09-29T09:53:04;100383.72;;;19.10;53.66
74529;BME280;63009;52.584;5.932;2022-09-29T09:55:30;100397.56;;;19.23;55.25
74529;BME280;63009;52.584;5.932;2022-09-29T09:58:22;100395.53;;;19.17;50.16
74529;BME280;63009;52.584;5.932;2022-09-29T10:01:05;100388.59;;;18.89;50.24
74529;BME280;63009;52.584;5.932;2022-09-29T10:03:31;100391.56;;;18.86;52.58
74529;BME280;63009;52.584;5.932;2022-09-29T10:05:57;100378.09;;;18.95;52.85
74529;BME280;63009;52.584;5.932;2022-09-29T10:08:28;100392.25;;;19.06;50.00
74529;BME280;63009;52.584;5.932;2022-09-29T10:10:55;100393.44;;;18.58;51.75
74529;BME280;63009;52.584;5.932;2022-09-29T10:13:24;100401.75;;;18.64;52.14
74529;BME280;63009;52.584;5.932;2022-09-29T10:15:54;100398.00;;;18.93;54.19
74529;BME280;63009;52.584;5.932;2022-09-29T10:18:36;100406.34;;;18.90;51.30
74529;BME280;63009;52.584;5.932;2022-09-29T10:21:03;100398.59;;;18.69;50.89
74529;BME280;63009;52.584;5.932;2022-09-29T10:23:34;100402.91;;;18.80;50.37
74529;BME280;63009;52.584;5.932;2022-09-29T10:26:11;100386.34;;;18.84;50.72
74529;BME280;63009;52.584;5.932;2022-09-29T10:28:57;100410.91;;;18.97;50.18
74529;BME280;63009;52.584;5.932;2022-09-29T10:31:33;100409.75;;;19.00;48.24
74529;BME280;63009;52.584;5.932;2022-09-29T10:34:02;100415.75;;;18.76;49.07
74529;BME280;63009;52.584;5.932;2022-09-29T10:36:48;100413.59;;;19.15;51.84
74529;BME280;63009;52.584;5.932;2022-09-29T10:39:42;100413.75;;;19.40;53.54
74529;BME280;63009;52.584;5.932;2022-09-29T10:42:25;100401.38;;;19.56;50.37
74529;BME280;63009;52.584;5.932;2022-09-29T10:45:45;100418.47;;;19.90;49.95
74529;BME280;63009;52.584;5.932;2022-09-29T10:48:12;100418.59;;;20.14;49.24
74529;BME280;63009;52.584;5.932;2022-09-29T10:50:37;100418.22;;;20.43;50.77
74529;BME280;63009;52.584;5.932;2022-09-29T10:56:07;100418.38;;;20.41;47.74
74529;BME280;63009;52.584;5.932;2022-09-29T10:58:37;100407.84;;;20.56;48.71
74529;BME280;63009;52.584;5.932;2022-09-29T11:01:08;100422.31;;;20.96;49.53
74529;BME280;63009;52.584;5.932;2022-09-29T11:03:37;100406.03;;;21.05;48.87
74529;BME280;63009;52.584;5.932;2022-09-29T11:06:12;100414.78;;;21.48;50.33
74529;BME280;63009;52.584;5.932;2022-09-29T11:11:24;100424.47;;;21.74;46.88
74529;BME280;63009;52.584;5.932;2022-09-29T11:13:51;100418.28;;;21.49;47.16
74529;BME280;63009;52.584;5.932;2022-09-29T11:16:27;100436.09;;;21.50;45.03
74529;BME280;63009;52.584;5.932;2022-09-29T11:18:56;100432.28;;;21.28;46.92
74529;BME280;63009;52.584;5.932;2022-09-29T11:21:48;100442.13;;;20.95;46.31
74529;BME280;63009;52.584;5.932;2022-09-29T11:33:22;100422.50;;;21.02;49.71
74529;BME280;63009;52.584;5.932;2022-09-29T11:38:41;100435.28;;;21.33;45.33
74529;BME280;63009;52.584;5.932;2022-09-29T11:41:16;100446.03;;;21.33;43.41
74529;BME280;63009;52.584;5.932;2022-09-29T11:43:50;100450.38;;;21.18;41.53
74529;BME280;63009;52.584;5.932;2022-09-29T11:46:24;100453.25;;;21.16;45.53
74529;BME280;63009;52.584;5.932;2022-09-29T11:54:21;100452.38;;;21.73;48.08
74529;BME280;63009;52.584;5.932;2022-09-29T11:57:10;100458.38;;;21.99;43.24
74529;BME280;63009;52.584;5.932;2022-09-29T11:59:58;100459.84;;;22.18;44.55
74529;BME280;63009;52.584;5.932;2022-09-29T12:08:26;100461.78;;;23.02;46.24
74529;BME280;63009;52.584;5.932;2022-09-29T12:16:12;100469.28;;;23.15;45.30
74529;BME280;63009;52.584;5.932;2022-09-29T12:18:46;100467.06;;;23.19;45.46
74529;BME280;63009;52.584;5.932;2022-09-29T12:21:14;100460.50;;;23.36;48.13
74529;BME280;63009;52.584;5.932;2022-09-29T12:23:42;100457.94;;;23.43;45.53
74529;BME280;63009;52.584;5.932;2022-09-29T12:26:17;100456.81;;;23.37;44.86
74529;BME280;63009;52.584;5.932;2022-09-29T12:28:49;100460.72;;;23.49;46.91
74529;BME280;63009;52.584;5.932;2022-09-29T12:31:20;100460.38;;;23.52;46.92
74529;BME280;63009;52.584;5.932;2022-09-29T12:33:57;100460.06;;;23.47;46.23
74529;BME280;63009;52.584;5.932;2022-09-29T12:36:52;100435.69;;;23.40;45.21
74529;BME280;63009;52.584;5.932;2022-09-29T12:39:40;100454.34;;;23.04;39.30
74529;BME280;63009;52.584;5.932;2022-09-29T12:42:16;100464.06;;;22.91;43.29
74529;BME280;63009;52.584;5.932;2022-09-29T12:44:56;100461.53;;;22.89;43.76
74529;BME280;63009;52.584;5.932;2022-09-29T12:50:04;100465.31;;;23.03;46.74
74529;BME280;63009;52.584;5.932;2022-09-29T12:52:58;100470.16;;;23.07;46.01
74529;BME280;63009;52.584;5.932;2022-09-29T12:55:51;100465.75;;;23.15;48.11
74529;BME280;63009;52.584;5.932;2022-09-29T12:58:29;100459.16;;;23.17;45.37
74529;BME280;63009;52.584;5.932;2022-09-29T13:01:32;100454.16;;;23.06;47.40
74529;BME280;63009;52.584;5.932;2022-09-29T13:09:38;100462.00;;;22.93;46.88
74529;BME280;63009;52.584;5.932;2022-09-29T13:23:03;100471.25;;;22.28;48.78
74529;BME280;63009;52.584;5.932;2022-09-29T13:26:11;100465.78;;;22.13;43.88
74529;BME280;63009;52.584;5.932;2022-09-29T13:28:44;100470.22;;;21.49;42.05
74529;BME280;63009;52.584;5.932;2022-09-29T13:31:18;100476.31;;;21.27;42.36
74529;BME280;63009;52.584;5.932;2022-09-29T13:33:50;100469.88;;;21.12;45.02
74529;BME280;63009;52.584;5.932;2022-09-29T13:36:41;100471.72;;;21.03;45.61
74529;BME280;63009;52.584;5.932;2022-09-29T13:39:37;100482.56;;;20.77;45.08
74529;BME280;63009;52.584;5.932;2022-09-29T13:47:57;100487.59;;;20.80;47.39
74529;BME280;63009;52.584;5.932;2022-09-29T13:50:40;100483.56;;;20.76;49.36
74529;BME280;63009;52.584;5.932;2022-09-29T13:58:52;100491.22;;;20.55;47.98
74529;BME280;63009;52.584;5.932;2022-09-29T14:01:33;100502.66;;;20.57;46.76
74529;BME280;63009;52.584;5.932;2022-09-29T14:07:05;100497.00;;;20.34;48.57
74529;BME280;63009;52.584;5.932;2022-09-29T14:09:33;100494.13;;;20.27;48.39
74529;BME280;63009;52.584;5.932;2022-09-29T14:12:05;100503.00;;;20.28;46.60
74529;BME280;63009;52.584;5.932;2022-09-29T14:14:38;100485.53;;;20.24;49.13
74529;BME280;63009;52.584;5.932;2022-09-29T14:17:33;100499.09;;;20.22;47.92
74529;BME280;63009;52.584;5.932;2022-09-29T14:20:07;100493.84;;;20.12;46.60
74529;BME280;63009;52.584;5.932;2022-09-29T14:27:34;100505.22;;;20.06;46.92
74529;BME280;63009;52.584;5.932;2022-09-29T14:37:40;100512.09;;;20.01;46.66
74529;BME280;63009;52.584;5.932;2022-09-29T14:40:07;100520.41;;;19.98;46.64
74529;BME280;63009;52.584;5.932;2022-09-29T14:43:16;100512.84;;;19.93;45.76
74529;BME280;63009;52.584;5.932;2022-09-29T14:58:01;100524.56;;;19.66;41.64
74529;BME280;63009;52.584;5.932;2022-09-29T15:03:42;100522.25;;;19.53;45.79
74529;BME280;63009;52.584;5.932;2022-09-29T15:06:10;100524.09;;;19.53;46.67
74529;BME280;63009;52.584;5.932;2022-09-29T15:08:36;100526.78;;;19.53;47.47
74529;BME280;63009;52.584;5.932;2022-09-29T15:11:24;100540.59;;;19.58;49.66
74529;BME280;63009;52.584;5.932;2022-09-29T15:13:51;100537.59;;;19.61;49.13
74529;BME280;63009;52.584;5.932;2022-09-29T15:16:31;100531.72;;;19.58;49.12
74529;BME280;63009;52.584;5.932;2022-09-29T15:24:32;100549.16;;;19.44;49.88
74529;BME280;63009;52.584;5.932;2022-09-29T15:27:10;100520.50;;;19.26;48.84
74529;BME280;63009;52.584;5.932;2022-09-29T15:29:39;100540.25;;;19.25;51.04